sensor_id;sensor_type;location;lat;lon;timestamp;temperature;humidity
52036;DHT22;38046;49.448;32.074;2023-01-23T00:01:15;3.20;87.60
52036;DHT22;38046;49.448;32.074;2023-01-23T00:03:41;3.20;86.90
52036;DHT22;38046;49.448;32.074;2023-01-23T00:06:10;3.20;86.80
52036;DHT22;38046;49.448;32.074;2023-01-23T00:08:37;3.20;86.60
52036;DHT22;38046;49.448;32.074;2023-01-23T00:11:04;3.30;86.60
52036;DHT22;38046;49.448;32.074;2023-01-23T00:13:31;3.30;86.30
52036;DHT22;38046;49.448;32.074;2023-01-23T00:15:57;3.30;86.10
52036;DHT22;38046;49.448;32.074;2023-01-23T00:18:22;3.30;86.00
52036;DHT22;38046;49.448;32.074;2023-01-23T00:20:48;3.30;85.90
52036;DHT22;38046;49.448;32.074;2023-01-23T00:23:14;3.30;86.10
52036;DHT22;38046;49.448;32.074;2023-01-23T00:25:39;3.30;86.10
52036;DHT22;38046;49.448;32.074;2023-01-23T00:28:05;3.40;86.10
52036;DHT22;38046;49.448;32.074;2023-01-23T00:30:31;3.40;85.90
52036;DHT22;38046;49.448;32.074;2023-01-23T00:32:57;3.40;85.80
52036;DHT22;38046;49.448;32.074;2023-01-23T00:35:23;3.30;85.80
52036;DHT22;38046;49.448;32.074;2023-01-23T00:37:48;3.40;85.90
52036;DHT22;38046;49.448;32.074;2023-01-23T00:40:14;3.40;85.70
52036;DHT22;38046;49.448;32.074;2023-01-23T00:42:40;3.40;85.50
52036;DHT22;38046;49.448;32.074;2023-01-23T00:45:06;3.40;85.40
52036;DHT22;38046;49.448;32.074;2023-01-23T00:47:32;3.40;85.40
52036;DHT22;38046;49.448;32.074;2023-01-23T00:49:57;3.40;85.30
52036;DHT22;38046;49.448;32.074;2023-01-23T00:52:24;3.40;85.20
52036;DHT22;38046;49.448;32.074;2023-01-23T00:54:50;3.40;85.20
52036;DHT22;38046;49.448;32.074;2023-01-23T00:57:16;3.40;85.20
52036;DHT22;38046;49.448;32.074;2023-01-23T00:59:42;3.30;85.40
52036;DHT22;38046;49.448;32.074;2023-01-23T01:02:07;3.40;85.40
52036;DHT22;38046;49.448;32.074;2023-01-23T01:04:33;3.40;85.40
52036;DHT22;38046;49.448;32.074;2023-01-23T01:06:59;3.40;84.80
52036;DHT22;38046;49.448;32.074;2023-01-23T01:09:24;3.40;84.80
52036;DHT22;38046;49.448;32.074;2023-01-23T01:11:50;3.30;84.60
52036;DHT22;38046;49.448;32.074;2023-01-23T01:14:17;3.30;84.50
52036;DHT22;38046;49.448;32.074;2023-01-23T01:16:42;3.30;84.50
52036;DHT22;38046;49.448;32.074;2023-01-23T01:19:12;3.20;84.50
52036;DHT22;38046;49.448;32.074;2023-01-23T01:21:39;3.20;84.60
52036;DHT22;38046;49.448;32.074;2023-01-23T01:24:05;3.20;84.50
52036;DHT22;38046;49.448;32.074;2023-01-23T01:26:31;3.20;84.60
52036;DHT22;38046;49.448;32.074;2023-01-23T01:28:56;3.20;84.60
52036;DHT22;38046;49.448;32.074;2023-01-23T01:31:22;3.20;84.60
52036;DHT22;38046;49.448;32.074;2023-01-23T01:33:48;3.20;84.60
52036;DHT22;38046;49.448;32.074;2023-01-23T01:36:18;3.20;84.60
52036;DHT22;38046;49.448;32.074;2023-01-23T01:38:44;3.20;84.70
52036;DHT22;38046;49.448;32.074;2023-01-23T01:41:09;3.20;84.60
52036;DHT22;38046;49.448;32.074;2023-01-23T01:43:37;3.20;84.70
52036;DHT22;38046;49.448;32.074;2023-01-23T01:57:18;3.30;84.60
52036;DHT22;38046;49.448;32.074;2023-01-23T01:59:56;3.30;84.60
52036;DHT22;38046;49.448;32.074;2023-01-23T02:02:32;3.30;84.70
52036;DHT22;38046;49.448;32.074;2023-01-23T02:05:20;3.40;84.70
52036;DHT22;38046;49.448;32.074;2023-01-23T02:07:56;3.30;84.30
52036;DHT22;38046;49.448;32.074;2023-01-23T02:10:23;3.30;84.30
52036;DHT22;38046;49.448;32.074;2023-01-23T02:12:50;3.30;84.10
52036;DHT22;38046;49.448;32.074;2023-01-23T02:15:20;3.30;84.00
52036;DHT22;38046;49.448;32.074;2023-01-23T02:17:49;3.30;84.10
52036;DHT22;38046;49.448;32.074;2023-01-23T02:20:22;3.30;84.10
52036;DHT22;38046;49.448;32.074;2023-01-23T02:23:03;3.20;84.80
52036;DHT22;38046;49.448;32.074;2023-01-23T02:26:00;3.20;84.00
52036;DHT22;38046;49.448;32.074;2023-01-23T02:28:44;3.20;84.10
52036;DHT22;38046;49.448;32.074;2023-01-23T02:31:11;3.20;84.10
52036;DHT22;38046;49.448;32.074;2023-01-23T02:36:03;3.20;84.10
52036;DHT22;38046;49.448;32.074;2023-01-23T02:38:41;3.20;84.00
52036;DHT22;38046;49.448;32.074;2023-01-23T02:41:09;3.20;84.00
52036;DHT22;38046;49.448;32.074;2023-01-23T02:43:36;3.20;84.70
52036;DHT22;38046;49.448;32.074;2023-01-23T02:46:09;3.20;84.10
52036;DHT22;38046;49.448;32.074;2023-01-23T02:48:37;3.20;84.00
52036;DHT22;38046;49.448;32.074;2023-01-23T02:51:04;3.20;84.10
52036;DHT22;38046;49.448;32.074;2023-01-23T02:53:30;3.20;84.20
52036;DHT22;38046;49.448;32.074;2023-01-23T02:55:56;3.20;84.10
52036;DHT22;38046;49.448;32.074;2023-01-23T02:58:23;3.20;84.20
52036;DHT22;38046;49.448;32.074;2023-01-23T03:01:07;3.20;84.20
52036;DHT22;38046;49.448;32.074;2023-01-23T03:03:33;3.20;84.10
52036;DHT22;38046;49.448;32.074;2023-01-23T03:05:59;3.20;84.20
52036;DHT22;38046;49.448;32.074;2023-01-23T03:08:27;3.20;84.30
52036;DHT22;38046;49.448;32.074;2023-01-23T03:10:59;3.20;84.20
52036;DHT22;38046;49.448;32.074;2023-01-23T03:13:24;3.20;84.10
52036;DHT22;38046;49.448;32.074;2023-01-23T03:15:50;3.20;84.00
52036;DHT22;38046;49.448;32.074;2023-01-23T03:18:20;3.20;83.80
52036;DHT22;38046;49.448;32.074;2023-01-23T03:20:46;3.20;83.60
52036;DHT22;38046;49.448;32.074;2023-01-23T03:23:12;3.10;84.10
52036;DHT22;38046;49.448;32.074;2023-01-23T03:25:42;3.10;83.40
52036;DHT22;38046;49.448;32.074;2023-01-23T03:28:08;3.10;83.40
52036;DHT22;38046;49.448;32.074;2023-01-23T03:30:54;3.10;83.50
52036;DHT22;38046;49.448;32.074;2023-01-23T03:33:19;3.00;83.50
52036;DHT22;38046;49.448;32.074;2023-01-23T03:35:45;3.00;83.50
52036;DHT22;38046;49.448;32.074;2023-01-23T03:38:11;3.00;83.40
52036;DHT22;38046;49.448;32.074;2023-01-23T03:40:36;3.00;83.40
52036;DHT22;38046;49.448;32.074;2023-01-23T03:43:21;2.90;83.40
52036;DHT22;38046;49.448;32.074;2023-01-23T03:45:46;2.90;83.40
52036;DHT22;38046;49.448;32.074;2023-01-23T03:48:12;2.90;83.10
52036;DHT22;38046;49.448;32.074;2023-01-23T03:50:37;2.90;83.00
52036;DHT22;38046;49.448;32.074;2023-01-23T03:53:03;2.90;82.90
52036;DHT22;38046;49.448;32.074;2023-01-23T03:55:28;2.80;83.00
52036;DHT22;38046;49.448;32.074;2023-01-23T03:57:54;2.80;83.00
52036;DHT22;38046;49.448;32.074;2023-01-23T04:00:20;2.80;82.80
52036;DHT22;38046;49.448;32.074;2023-01-23T04:02:45;2.80;82.60
52036;DHT22;38046;49.448;32.074;2023-01-23T04:05:11;2.80;82.30
52036;DHT22;38046;49.448;32.074;2023-01-23T04:07:37;2.80;82.20
52036;DHT22;38046;49.448;32.074;2023-01-23T04:10:02;2.80;82.20
52036;DHT22;38046;49.448;32.074;2023-01-23T04:12:28;2.80;82.20
52036;DHT22;38046;49.448;32.074;2023-01-23T04:14:54;2.80;82.00
52036;DHT22;38046;49.448;32.074;2023-01-23T04:17:19;2.80;81.80
52036;DHT22;38046;49.448;32.074;2023-01-23T04:19:45;2.80;81.70
52036;DHT22;38046;49.448;32.074;2023-01-23T04:22:10;2.80;81.60
52036;DHT22;38046;49.448;32.074;2023-01-23T04:24:36;2.70;81.30
52036;DHT22;38046;49.448;32.074;2023-01-23T04:27:02;2.70;81.60
52036;DHT22;38046;49.448;32.074;2023-01-23T04:29:27;2.70;81.80
52036;DHT22;38046;49.448;32.074;2023-01-23T04:31:53;2.70;81.70
52036;DHT22;38046;49.448;32.074;2023-01-23T04:34:19;2.60;81.60
52036;DHT22;38046;49.448;32.074;2023-01-23T04:36:44;2.60;81.90
52036;DHT22;38046;49.448;32.074;2023-01-23T04:39:10;2.60;82.10
52036;DHT22;38046;49.448;32.074;2023-01-23T04:41:35;2.60;82.10
52036;DHT22;38046;49.448;32.074;2023-01-23T04:44:01;2.60;82.20
52036;DHT22;38046;49.448;32.074;2023-01-23T04:46:49;2.60;82.40
52036;DHT22;38046;49.448;32.074;2023-01-23T04:49:17;2.60;82.50
52036;DHT22;38046;49.448;32.074;2023-01-23T04:51:47;2.60;82.60
52036;DHT22;38046;49.448;32.074;2023-01-23T04:54:13;2.60;82.50
52036;DHT22;38046;49.448;32.074;2023-01-23T04:56:38;2.60;82.30
52036;DHT22;38046;49.448;32.074;2023-01-23T04:59:04;2.60;82.30
52036;DHT22;38046;49.448;32.074;2023-01-23T05:01:30;2.60;82.20
52036;DHT22;38046;49.448;32.074;2023-01-23T05:03:56;2.60;82.10
52036;DHT22;38046;49.448;32.074;2023-01-23T05:06:22;2.60;82.20
52036;DHT22;38046;49.448;32.074;2023-01-23T05:08:47;2.60;82.10
52036;DHT22;38046;49.448;32.074;2023-01-23T05:11:13;2.50;81.90
52036;DHT22;38046;49.448;32.074;2023-01-23T05:13:39;2.50;82.00
52036;DHT22;38046;49.448;32.074;2023-01-23T05:16:04;2.40;82.20
52036;DHT22;38046;49.448;32.074;2023-01-23T05:18:30;2.40;82.50
52036;DHT22;38046;49.448;32.074;2023-01-23T05:20:56;2.50;82.80
52036;DHT22;38046;49.448;32.074;2023-01-23T05:23:21;2.50;82.80
52036;DHT22;38046;49.448;32.074;2023-01-23T05:25:47;2.60;82.50
52036;DHT22;38046;49.448;32.074;2023-01-23T05:28:12;2.60;82.80
52036;DHT22;38046;49.448;32.074;2023-01-23T05:30:38;2.60;82.30
52036;DHT22;38046;49.448;32.074;2023-01-23T05:33:04;2.70;82.10
52036;DHT22;38046;49.448;32.074;2023-01-23T05:35:30;2.70;81.90
52036;DHT22;38046;49.448;32.074;2023-01-23T05:37:56;2.70;81.80
52036;DHT22;38046;49.448;32.074;2023-01-23T05:40:22;2.70;81.70
52036;DHT22;38046;49.448;32.074;2023-01-23T05:42:48;2.70;81.60
52036;DHT22;38046;49.448;32.074;2023-01-23T05:45:15;2.70;81.90
52036;DHT22;38046;49.448;32.074;2023-01-23T05:47:41;2.70;82.20
52036;DHT22;38046;49.448;32.074;2023-01-23T05:50:08;2.70;82.40
52036;DHT22;38046;49.448;32.074;2023-01-23T05:52:35;2.70;82.00
52036;DHT22;38046;49.448;32.074;2023-01-23T05:55:01;2.70;81.90
52036;DHT22;38046;49.448;32.074;2023-01-23T05:57:27;2.80;81.90
52036;DHT22;38046;49.448;32.074;2023-01-23T05:59:52;2.70;81.80
52036;DHT22;38046;49.448;32.074;2023-01-23T06:02:18;2.80;81.80
52036;DHT22;38046;49.448;32.074;2023-01-23T06:04:46;2.80;81.40
52036;DHT22;38046;49.448;32.074;2023-01-23T06:07:13;2.80;81.70
52036;DHT22;38046;49.448;32.074;2023-01-23T06:09:39;2.70;81.60
52036;DHT22;38046;49.448;32.074;2023-01-23T06:12:05;2.70;81.80
52036;DHT22;38046;49.448;32.074;2023-01-23T06:14:31;2.70;81.80
52036;DHT22;38046;49.448;32.074;2023-01-23T06:16:57;2.70;81.80
52036;DHT22;38046;49.448;32.074;2023-01-23T06:19:22;2.70;81.70
52036;DHT22;38046;49.448;32.074;2023-01-23T06:21:48;2.80;81.70
52036;DHT22;38046;49.448;32.074;2023-01-23T06:24:14;2.80;81.60
52036;DHT22;38046;49.448;32.074;2023-01-23T06:26:39;2.80;81.70
52036;DHT22;38046;49.448;32.074;2023-01-23T06:29:05;2.80;81.80
52036;DHT22;38046;49.448;32.074;2023-01-23T06:31:30;2.80;81.50
52036;DHT22;38046;49.448;32.074;2023-01-23T06:33:57;2.80;81.50
52036;DHT22;38046;49.448;32.074;2023-01-23T06:36:23;2.80;81.60
52036;DHT22;38046;49.448;32.074;2023-01-23T06:38:49;2.80;81.50
52036;DHT22;38046;49.448;32.074;2023-01-23T06:41:15;2.80;81.60
52036;DHT22;38046;49.448;32.074;2023-01-23T06:43:41;2.80;81.20
52036;DHT22;38046;49.448;32.074;2023-01-23T06:46:08;2.80;81.40
52036;DHT22;38046;49.448;32.074;2023-01-23T06:48:34;2.80;81.40
52036;DHT22;38046;49.448;32.074;2023-01-23T06:51:00;2.80;81.50
52036;DHT22;38046;49.448;32.074;2023-01-23T06:53:26;2.80;81.60
52036;DHT22;38046;49.448;32.074;2023-01-23T06:55:52;2.80;81.40
52036;DHT22;38046;49.448;32.074;2023-01-23T06:58:18;2.80;81.40
52036;DHT22;38046;49.448;32.074;2023-01-23T07:00:44;2.70;81.60
52036;DHT22;38046;49.448;32.074;2023-01-23T07:03:14;2.70;81.60
52036;DHT22;38046;49.448;32.074;2023-01-23T07:05:39;2.70;81.70
52036;DHT22;38046;49.448;32.074;2023-01-23T07:08:08;2.70;81.50
52036;DHT22;38046;49.448;32.074;2023-01-23T07:10:35;2.70;81.50
52036;DHT22;38046;49.448;32.074;2023-01-23T07:13:06;2.70;81.70
52036;DHT22;38046;49.448;32.074;2023-01-23T07:15:32;2.70;81.70
52036;DHT22;38046;49.448;32.074;2023-01-23T07:17:59;2.70;81.80
52036;DHT22;38046;49.448;32.074;2023-01-23T07:20:24;2.70;81.90
52036;DHT22;38046;49.448;32.074;2023-01-23T07:22:55;2.70;81.80
52036;DHT22;38046;49.448;32.074;2023-01-23T07:25:22;2.70;82.00
52036;DHT22;38046;49.448;32.074;2023-01-23T07:27:48;2.70;81.90
52036;DHT22;38046;49.448;32.074;2023-01-23T07:30:14;2.70;82.00
52036;DHT22;38046;49.448;32.074;2023-01-23T07:32:40;2.70;82.20
52036;DHT22;38046;49.448;32.074;2023-01-23T07:35:06;2.80;82.30
52036;DHT22;38046;49.448;32.074;2023-01-23T07:37:32;2.80;82.20
52036;DHT22;38046;49.448;32.074;2023-01-23T07:39:58;2.80;82.20
52036;DHT22;38046;49.448;32.074;2023-01-23T07:42:23;2.80;82.10
52036;DHT22;38046;49.448;32.074;2023-01-23T07:44:49;2.80;82.10
52036;DHT22;38046;49.448;32.074;2023-01-23T07:47:15;2.80;82.20
52036;DHT22;38046;49.448;32.074;2023-01-23T07:49:40;2.80;82.30
52036;DHT22;38046;49.448;32.074;2023-01-23T07:52:06;2.90;82.40
52036;DHT22;38046;49.448;32.074;2023-01-23T07:54:32;2.90;82.40
52036;DHT22;38046;49.448;32.074;2023-01-23T07:56:57;2.90;82.30
52036;DHT22;38046;49.448;32.074;2023-01-23T07:59:23;2.90;82.30
52036;DHT22;38046;49.448;32.074;2023-01-23T08:01:49;3.00;82.10
52036;DHT22;38046;49.448;32.074;2023-01-23T08:04:17;3.00;81.80
52036;DHT22;38046;49.448;32.074;2023-01-23T08:06:43;3.00;81.80
52036;DHT22;38046;49.448;32.074;2023-01-23T08:09:08;3.00;81.90
52036;DHT22;38046;49.448;32.074;2023-01-23T08:11:34;3.00;81.90
52036;DHT22;38046;49.448;32.074;2023-01-23T08:14:00;2.90;81.80
52036;DHT22;38046;49.448;32.074;2023-01-23T08:16:25;2.90;81.90
52036;DHT22;38046;49.448;32.074;2023-01-23T08:18:52;3.00;82.00
52036;DHT22;38046;49.448;32.074;2023-01-23T08:21:18;3.00;81.90
52036;DHT22;38046;49.448;32.074;2023-01-23T08:23:44;3.00;81.90
52036;DHT22;38046;49.448;32.074;2023-01-23T08:26:12;3.00;82.00
52036;DHT22;38046;49.448;32.074;2023-01-23T08:28:40;3.00;81.70
52036;DHT22;38046;49.448;32.074;2023-01-23T08:31:08;3.00;81.70
52036;DHT22;38046;49.448;32.074;2023-01-23T08:33:35;3.00;81.70
52036;DHT22;38046;49.448;32.074;2023-01-23T08:36:02;3.00;81.70
52036;DHT22;38046;49.448;32.074;2023-01-23T08:38:29;3.10;81.90
52036;DHT22;38046;49.448;32.074;2023-01-23T08:40:58;3.10;81.50
52036;DHT22;38046;49.448;32.074;2023-01-23T08:43:24;3.10;81.50
52036;DHT22;38046;49.448;32.074;2023-01-23T08:45:52;3.10;81.40
52036;DHT22;38046;49.448;32.074;2023-01-23T08:48:19;3.10;82.10
52036;DHT22;38046;49.448;32.074;2023-01-23T08:50:45;3.20;81.40
52036;DHT22;38046;49.448;32.074;2023-01-23T08:53:11;3.20;81.30
52036;DHT22;38046;49.448;32.074;2023-01-23T08:55:37;3.20;81.10
52036;DHT22;38046;49.448;32.074;2023-01-23T08:58:04;3.30;80.90
52036;DHT22;38046;49.448;32.074;2023-01-23T09:00:30;3.30;80.80
52036;DHT22;38046;49.448;32.074;2023-01-23T09:02:59;3.30;80.60
52036;DHT22;38046;49.448;32.074;2023-01-23T09:05:25;3.30;80.60
52036;DHT22;38046;49.448;32.074;2023-01-23T09:07:51;3.30;80.30
52036;DHT22;38046;49.448;32.074;2023-01-23T09:10:17;3.30;80.40
52036;DHT22;38046;49.448;32.074;2023-01-23T09:12:42;3.30;80.50
52036;DHT22;38046;49.448;32.074;2023-01-23T09:15:08;3.30;80.40
52036;DHT22;38046;49.448;32.074;2023-01-23T09:17:35;3.30;80.50
52036;DHT22;38046;49.448;32.074;2023-01-23T09:20:00;3.40;79.90
52036;DHT22;38046;49.448;32.074;2023-01-23T09:22:30;3.40;79.90
52036;DHT22;38046;49.448;32.074;2023-01-23T09:24:56;3.40;79.90
52036;DHT22;38046;49.448;32.074;2023-01-23T09:27:22;3.40;80.00
52036;DHT22;38046;49.448;32.074;2023-01-23T09:29:48;3.40;80.20
52036;DHT22;38046;49.448;32.074;2023-01-23T09:32:14;3.40;80.30
52036;DHT22;38046;49.448;32.074;2023-01-23T09:34:40;3.40;80.30
52036;DHT22;38046;49.448;32.074;2023-01-23T09:37:05;3.40;80.40
52036;DHT22;38046;49.448;32.074;2023-01-23T09:39:31;3.50;80.20
52036;DHT22;38046;49.448;32.074;2023-01-23T09:41:57;3.50;80.10
52036;DHT22;38046;49.448;32.074;2023-01-23T09:46:55;3.50;80.00
52036;DHT22;38046;49.448;32.074;2023-01-23T09:52:04;3.50;80.00
52036;DHT22;38046;49.448;32.074;2023-01-23T09:57:33;3.50;80.00
52036;DHT22;38046;49.448;32.074;2023-01-23T10:02:42;3.50;79.80
52036;DHT22;38046;49.448;32.074;2023-01-23T10:05:13;3.50;79.90
52036;DHT22;38046;49.448;32.074;2023-01-23T10:08:04;3.50;79.60
52036;DHT22;38046;49.448;32.074;2023-01-23T10:11:16;3.60;79.70
52036;DHT22;38046;49.448;32.074;2023-01-23T10:16:36;3.50;79.40
52036;DHT22;38046;49.448;32.074;2023-01-23T10:21:58;3.50;79.70
52036;DHT22;38046;49.448;32.074;2023-01-23T10:24:51;3.50;79.70
52036;DHT22;38046;49.448;32.074;2023-01-23T10:27:21;3.60;79.70
52036;DHT22;38046;49.448;32.074;2023-01-23T10:29:59;3.50;79.20
52036;DHT22;38046;49.448;32.074;2023-01-23T10:32:28;3.50;79.90
52036;DHT22;38046;49.448;32.074;2023-01-23T10:35:04;3.60;79.80
52036;DHT22;38046;49.448;32.074;2023-01-23T10:37:59;3.60;79.90
52036;DHT22;38046;49.448;32.074;2023-01-23T10:40:26;3.60;79.70
52036;DHT22;38046;49.448;32.074;2023-01-23T10:43:16;3.60;80.00
52036;DHT22;38046;49.448;32.074;2023-01-23T10:45:42;3.60;79.90
52036;DHT22;38046;49.448;32.074;2023-01-23T10:50:57;3.60;79.40
52036;DHT22;38046;49.448;32.074;2023-01-23T10:53:23;3.60;79.50
52036;DHT22;38046;49.448;32.074;2023-01-23T10:55:51;3.60;79.50
52036;DHT22;38046;49.448;32.074;2023-01-23T10:58:36;3.70;79.60
52036;DHT22;38046;49.448;32.074;2023-01-23T11:01:03;3.70;79.40
52036;DHT22;38046;49.448;32.074;2023-01-23T11:03:34;3.70;79.00
52036;DHT22;38046;49.448;32.074;2023-01-23T11:06:16;3.70;79.00
52036;DHT22;38046;49.448;32.074;2023-01-23T11:08:59;3.70;79.10
52036;DHT22;38046;49.448;32.074;2023-01-23T11:11:29;3.80;78.90
52036;DHT22;38046;49.448;32.074;2023-01-23T11:14:14;3.80;78.50
52036;DHT22;38046;49.448;32.074;2023-01-23T11:16:42;3.80;78.10
52036;DHT22;38046;49.448;32.074;2023-01-23T11:21:34;3.80;78.10
52036;DHT22;38046;49.448;32.074;2023-01-23T11:24:37;3.80;78.10
52036;DHT22;38046;49.448;32.074;2023-01-23T11:27:04;3.90;78.00
52036;DHT22;38046;49.448;32.074;2023-01-23T11:32:12;3.80;78.20
52036;DHT22;38046;49.448;32.074;2023-01-23T11:34:42;3.80;78.10
52036;DHT22;38046;49.448;32.074;2023-01-23T11:37:21;3.90;78.20
52036;DHT22;38046;49.448;32.074;2023-01-23T11:42:18;4.00;78.00
52036;DHT22;38046;49.448;32.074;2023-01-23T11:44:45;4.10;77.80
52036;DHT22;38046;49.448;32.074;2023-01-23T11:50:26;4.10;77.20
52036;DHT22;38046;49.448;32.074;2023-01-23T11:53:28;4.10;77.10
52036;DHT22;38046;49.448;32.074;2023-01-23T11:58:50;4.20;77.00
52036;DHT22;38046;49.448;32.074;2023-01-23T12:01:21;4.20;77.00
52036;DHT22;38046;49.448;32.074;2023-01-23T12:04:19;4.20;77.00
52036;DHT22;38046;49.448;32.074;2023-01-23T12:12:29;4.30;76.50
52036;DHT22;38046;49.448;32.074;2023-01-23T12:26:33;4.20;76.50
52036;DHT22;38046;49.448;32.074;2023-01-23T12:34:47;4.20;77.00
52036;DHT22;38046;49.448;32.074;2023-01-23T12:37:36;4.30;76.50
52036;DHT22;38046;49.448;32.074;2023-01-23T12:42:44;4.30;76.30
52036;DHT22;38046;49.448;32.074;2023-01-23T12:48:03;4.40;76.20
52036;DHT22;38046;49.448;32.074;2023-01-23T12:53:04;4.40;75.90
52036;DHT22;38046;49.448;32.074;2023-01-23T12:58:23;4.40;76.20
52036;DHT22;38046;49.448;32.074;2023-01-23T13:01:14;4.40;76.10
52036;DHT22;38046;49.448;32.074;2023-01-23T13:07:41;4.50;75.80
52036;DHT22;38046;49.448;32.074;2023-01-23T13:12:18;4.50;75.60
52036;DHT22;38046;49.448;32.074;2023-01-23T13:14:47;4.50;75.60
52036;DHT22;38046;49.448;32.074;2023-01-23T13:25:44;4.60;75.50
52036;DHT22;38046;49.448;32.074;2023-01-23T13:28:32;4.60;75.40
52036;DHT22;38046;49.448;32.074;2023-01-23T13:31:01;4.60;75.10
52036;DHT22;38046;49.448;32.074;2023-01-23T13:41:31;4.60;75.10
52036;DHT22;38046;49.448;32.074;2023-01-23T13:44:23;4.60;75.10
52036;DHT22;38046;49.448;32.074;2023-01-23T13:47:14;4.60;75.10
52036;DHT22;38046;49.448;32.074;2023-01-23T13:52:50;4.60;75.10
52036;DHT22;38046;49.448;32.074;2023-01-23T13:55:43;4.60;74.90
52036;DHT22;38046;49.448;32.074;2023-01-23T13:58:30;4.60;74.80
52036;DHT22;38046;49.448;32.074;2023-01-23T14:01:12;4.60;74.90
52036;DHT22;38046;49.448;32.074;2023-01-23T14:04:06;4.60;74.80
52036;DHT22;38046;49.448;32.074;2023-01-23T14:06:55;4.60;74.80
52036;DHT22;38046;49.448;32.074;2023-01-23T14:09:26;4.60;75.00
52036;DHT22;38046;49.448;32.074;2023-01-23T14:12:05;4.60;74.80
52036;DHT22;38046;49.448;32.074;2023-01-23T14:14:34;4.60;74.80
52036;DHT22;38046;49.448;32.074;2023-01-23T14:17:23;4.60;74.70
52036;DHT22;38046;49.448;32.074;2023-01-23T14:20:00;4.60;74.70
52036;DHT22;38046;49.448;32.074;2023-01-23T14:22:30;4.60;74.60
52036;DHT22;38046;49.448;32.074;2023-01-23T14:24:56;4.60;74.60
52036;DHT22;38046;49.448;32.074;2023-01-23T14:27:33;4.60;74.50
52036;DHT22;38046;49.448;32.074;2023-01-23T14:30:01;4.50;74.00
52036;DHT22;38046;49.448;32.074;2023-01-23T14:32:29;4.50;74.10
52036;DHT22;38046;49.448;32.074;2023-01-23T14:34:55;4.40;74.20
52036;DHT22;38046;49.448;32.074;2023-01-23T14:37:21;4.40;74.40
52036;DHT22;38046;49.448;32.074;2023-01-23T14:39:47;4.30;74.60
52036;DHT22;38046;49.448;32.074;2023-01-23T14:42:30;4.30;74.60
52036;DHT22;38046;49.448;32.074;2023-01-23T14:44:59;4.30;74.50
52036;DHT22;38046;49.448;32.074;2023-01-23T14:50:10;4.20;74.40
52036;DHT22;38046;49.448;32.074;2023-01-23T14:52:36;4.20;74.60
52036;DHT22;38046;49.448;32.074;2023-01-23T14:55:01;4.20;74.80
52036;DHT22;38046;49.448;32.074;2023-01-23T14:57:28;4.20;75.00
52036;DHT22;38046;49.448;32.074;2023-01-23T14:59:56;4.20;75.00
52036;DHT22;38046;49.448;32.074;2023-01-23T15:02:33;4.20;74.80
52036;DHT22;38046;49.448;32.074;2023-01-23T15:07:56;4.20;75.00
52036;DHT22;38046;49.448;32.074;2023-01-23T15:10:42;4.20;74.90
52036;DHT22;38046;49.448;32.074;2023-01-23T15:13:23;4.20;75.00
52036;DHT22;38046;49.448;32.074;2023-01-23T15:15:56;4.20;74.80
52036;DHT22;38046;49.448;32.074;2023-01-23T15:18:31;4.20;74.80
52036;DHT22;38046;49.448;32.074;2023-01-23T15:21:02;4.20;74.70
52036;DHT22;38046;49.448;32.074;2023-01-23T15:23:31;4.20;74.90
52036;DHT22;38046;49.448;32.074;2023-01-23T15:28:39;4.10;74.70
52036;DHT22;38046;49.448;32.074;2023-01-23T15:37:16;4.10;74.80
52036;DHT22;38046;49.448;32.074;2023-01-23T15:39:59;4.10;74.70
52036;DHT22;38046;49.448;32.074;2023-01-23T15:42:33;4.10;74.70
52036;DHT22;38046;49.448;32.074;2023-01-23T15:45:00;4.10;74.80
52036;DHT22;38046;49.448;32.074;2023-01-23T15:47:30;4.10;74.80
52036;DHT22;38046;49.448;32.074;2023-01-23T15:49:56;4.10;74.80
52036;DHT22;38046;49.448;32.074;2023-01-23T15:52:28;4.10;74.70
52036;DHT22;38046;49.448;32.074;2023-01-23T15:54:57;4.10;74.70
52036;DHT22;38046;49.448;32.074;2023-01-23T15:57:24;4.10;74.50
52036;DHT22;38046;49.448;32.074;2023-01-23T15:59:50;4.10;74.40
52036;DHT22;38046;49.448;32.074;2023-01-23T16:02:21;4.00;74.20
52036;DHT22;38046;49.448;32.074;2023-01-23T16:04:47;4.00;74.30
52036;DHT22;38046;49.448;32.074;2023-01-23T16:07:29;3.90;74.10
52036;DHT22;38046;49.448;32.074;2023-01-23T16:09:55;3.90;74.10
52036;DHT22;38046;49.448;32.074;2023-01-23T16:12:26;3.80;74.00
52036;DHT22;38046;49.448;32.074;2023-01-23T16:14:52;3.80;74.20
52036;DHT22;38046;49.448;32.074;2023-01-23T16:17:18;3.70;74.20
52036;DHT22;38046;49.448;32.074;2023-01-23T16:19:44;3.70;74.30
52036;DHT22;38046;49.448;32.074;2023-01-23T16:22:25;3.70;74.40
52036;DHT22;38046;49.448;32.074;2023-01-23T16:24:52;3.70;74.40
52036;DHT22;38046;49.448;32.074;2023-01-23T16:27:18;3.70;74.40
52036;DHT22;38046;49.448;32.074;2023-01-23T16:29:46;3.70;74.30
52036;DHT22;38046;49.448;32.074;2023-01-23T16:32:13;3.70;74.20
52036;DHT22;38046;49.448;32.074;2023-01-23T16:34:39;3.60;74.40
52036;DHT22;38046;49.448;32.074;2023-01-23T16:37:12;3.60;74.30
52036;DHT22;38046;49.448;32.074;2023-01-23T16:39:40;3.60;74.60
52036;DHT22;38046;49.448;32.074;2023-01-23T16:42:19;3.60;74.70
52036;DHT22;38046;49.448;32.074;2023-01-23T16:44:45;3.60;74.50
52036;DHT22;38046;49.448;32.074;2023-01-23T16:47:11;3.60;74.60
52036;DHT22;38046;49.448;32.074;2023-01-23T16:49:36;3.60;74.60
52036;DHT22;38046;49.448;32.074;2023-01-23T16:52:03;3.50;74.40
52036;DHT22;38046;49.448;32.074;2023-01-23T16:54:28;3.50;74.60
52036;DHT22;38046;49.448;32.074;2023-01-23T16:56:54;3.50;74.40
52036;DHT22;38046;49.448;32.074;2023-01-23T16:59:50;3.50;74.20
52036;DHT22;38046;49.448;32.074;2023-01-23T17:02:24;3.50;74.30
52036;DHT22;38046;49.448;32.074;2023-01-23T17:04:52;3.50;74.30
52036;DHT22;38046;49.448;32.074;2023-01-23T17:07:18;3.40;74.30
52036;DHT22;38046;49.448;32.074;2023-01-23T17:09:44;3.40;74.50
52036;DHT22;38046;49.448;32.074;2023-01-23T17:12:19;3.40;74.30
52036;DHT22;38046;49.448;32.074;2023-01-23T17:14:47;3.40;74.20
52036;DHT22;38046;49.448;32.074;2023-01-23T17:17:18;3.40;74.50
52036;DHT22;38046;49.448;32.074;2023-01-23T17:19:46;3.40;74.40
52036;DHT22;38046;49.448;32.074;2023-01-23T17:22:22;3.40;74.40
52036;DHT22;38046;49.448;32.074;2023-01-23T17:24:48;3.40;74.30
52036;DHT22;38046;49.448;32.074;2023-01-23T17:27:14;3.40;74.20
52036;DHT22;38046;49.448;32.074;2023-01-23T17:29:40;3.40;74.70
52036;DHT22;38046;49.448;32.074;2023-01-23T17:32:07;3.30;74.00
52036;DHT22;38046;49.448;32.074;2023-01-23T17:34:40;3.30;74.00
52036;DHT22;38046;49.448;32.074;2023-01-23T17:37:20;3.30;74.10
52036;DHT22;38046;49.448;32.074;2023-01-23T17:39:47;3.30;74.10
52036;DHT22;38046;49.448;32.074;2023-01-23T17:42:13;3.30;74.70
52036;DHT22;38046;49.448;32.074;2023-01-23T17:44:39;3.20;73.80